sensor_id;sensor_type;location;lat;lon;timestamp;P1;durP1;ratioP1;P2;durP2;ratioP2
42260;SDS011;27926;48.062;7.474;2022-08-19T00:01:20;22.37;;;12.93;;
42260;SDS011;27926;48.062;7.474;2022-08-19T00:03:46;25.42;;;13.63;;
42260;SDS011;27926;48.062;7.474;2022-08-19T00:06:11;19.37;;;13.40;;
42260;SDS011;27926;48.062;7.474;2022-08-19T00:08:36;23.53;;;14.63;;
42260;SDS011;27926;48.062;7.474;2022-08-19T00:11:01;20.05;;;14.32;;
42260;SDS011;27926;48.062;7.474;2022-08-19T00:13:25;22.83;;;13.93;;
42260;SDS011;27926;48.062;7.474;2022-08-19T00:15:52;20.52;;;14.20;;
42260;SDS011;27926;48.062;7.474;2022-08-19T00:18:17;20.73;;;14.40;;
42260;SDS011;27926;48.062;7.474;2022-08-19T00:20:41;22.27;;;14.60;;
42260;SDS011;27926;48.062;7.474;2022-08-19T00:23:06;22.23;;;13.73;;
42260;SDS011;27926;48.062;7.474;2022-08-19T00:25:31;23.00;;;15.00;;
42260;SDS011;27926;48.062;7.474;2022-08-19T00:27:55;23.13;;;14.80;;
42260;SDS011;27926;48.062;7.474;2022-08-19T00:30:20;25.65;;;13.10;;
42260;SDS011;27926;48.062;7.474;2022-08-19T00:32:45;22.05;;;14.40;;
42260;SDS011;27926;48.062;7.474;2022-08-19T00:35:09;20.85;;;13.48;;
42260;SDS011;27926;48.062;7.474;2022-08-19T00:37:35;21.13;;;14.10;;
42260;SDS011;27926;48.062;7.474;2022-08-19T00:40:00;24.38;;;13.05;;
42260;SDS011;27926;48.062;7.474;2022-08-19T00:42:26;21.65;;;13.43;;
42260;SDS011;27926;48.062;7.474;2022-08-19T00:47:16;18.05;;;11.52;;
42260;SDS011;27926;48.062;7.474;2022-08-19T00:49:43;20.92;;;12.52;;
42260;SDS011;27926;48.062;7.474;2022-08-19T00:52:38;16.65;;;10.82;;
42260;SDS011;27926;48.062;7.474;2022-08-19T00:55:13;19.70;;;11.80;;
42260;SDS011;27926;48.062;7.474;2022-08-19T00:57:43;18.83;;;12.00;;
42260;SDS011;27926;48.062;7.474;2022-08-19T01:00:14;19.17;;;11.15;;
42260;SDS011;27926;48.062;7.474;2022-08-19T01:02:42;17.73;;;10.43;;
42260;SDS011;27926;48.062;7.474;2022-08-19T01:05:08;22.20;;;11.55;;
42260;SDS011;27926;48.062;7.474;2022-08-19T01:07:36;21.10;;;11.27;;
42260;SDS011;27926;48.062;7.474;2022-08-19T01:12:45;16.20;;;10.52;;
42260;SDS011;27926;48.062;7.474;2022-08-19T01:15:12;16.90;;;9.90;;
42260;SDS011;27926;48.062;7.474;2022-08-19T01:17:39;12.98;;;10.40;;
42260;SDS011;27926;48.062;7.474;2022-08-19T01:22:49;14.70;;;8.52;;
42260;SDS011;27926;48.062;7.474;2022-08-19T01:25:19;15.63;;;7.88;;
42260;SDS011;27926;48.062;7.474;2022-08-19T01:27:47;22.55;;;7.75;;
42260;SDS011;27926;48.062;7.474;2022-08-19T01:32:56;11.95;;;8.32;;
42260;SDS011;27926;48.062;7.474;2022-08-19T01:35:25;13.13;;;7.97;;
42260;SDS011;27926;48.062;7.474;2022-08-19T01:40:39;13.63;;;7.70;;
42260;SDS011;27926;48.062;7.474;2022-08-19T01:43:11;18.90;;;8.60;;
42260;SDS011;27926;48.062;7.474;2022-08-19T01:45:36;10.48;;;8.43;;
42260;SDS011;27926;48.062;7.474;2022-08-19T01:50:48;12.52;;;8.27;;
42260;SDS011;27926;48.062;7.474;2022-08-19T01:55:56;17.95;;;9.80;;
42260;SDS011;27926;48.062;7.474;2022-08-19T02:01:10;14.27;;;8.27;;
42260;SDS011;27926;48.062;7.474;2022-08-19T02:03:44;15.57;;;7.80;;
42260;SDS011;27926;48.062;7.474;2022-08-19T02:11:58;16.25;;;8.65;;
42260;SDS011;27926;48.062;7.474;2022-08-19T02:14:23;11.00;;;7.32;;
42260;SDS011;27926;48.062;7.474;2022-08-19T02:17:00;11.50;;;8.18;;
42260;SDS011;27926;48.062;7.474;2022-08-19T02:19:26;14.20;;;7.93;;
42260;SDS011;27926;48.062;7.474;2022-08-19T02:22:11;15.32;;;7.70;;
42260;SDS011;27926;48.062;7.474;2022-08-19T02:24:38;12.80;;;7.78;;
42260;SDS011;27926;48.062;7.474;2022-08-19T02:27:07;13.82;;;8.73;;
42260;SDS011;27926;48.062;7.474;2022-08-19T02:29:32;11.65;;;8.63;;
42260;SDS011;27926;48.062;7.474;2022-08-19T02:32:04;12.65;;;8.00;;
42260;SDS011;27926;48.062;7.474;2022-08-19T02:34:35;12.80;;;7.93;;
42260;SDS011;27926;48.062;7.474;2022-08-19T02:37:05;11.85;;;8.00;;
42260;SDS011;27926;48.062;7.474;2022-08-19T02:42:37;11.50;;;6.80;;
42260;SDS011;27926;48.062;7.474;2022-08-19T02:45:39;12.27;;;8.60;;
42260;SDS011;27926;48.062;7.474;2022-08-19T02:48:09;18.92;;;8.25;;
42260;SDS011;27926;48.062;7.474;2022-08-19T03:06:57;13.35;;;8.30;;
42260;SDS011;27926;48.062;7.474;2022-08-19T03:12:20;14.43;;;8.68;;
42260;SDS011;27926;48.062;7.474;2022-08-19T03:32:05;13.13;;;8.35;;
42260;SDS011;27926;48.062;7.474;2022-08-19T06:23:09;14.38;;;7.25;;
42260;SDS011;27926;48.062;7.474;2022-08-19T06:25:34;10.25;;;7.18;;
42260;SDS011;27926;48.062;7.474;2022-08-19T06:27:59;13.75;;;8.00;;
42260;SDS011;27926;48.062;7.474;2022-08-19T06:30:24;14.55;;;7.63;;
42260;SDS011;27926;48.062;7.474;2022-08-19T06:32:48;10.82;;;7.70;;
42260;SDS011;27926;48.062;7.474;2022-08-19T06:35:13;20.15;;;8.25;;
42260;SDS011;27926;48.062;7.474;2022-08-19T06:37:38;16.87;;;7.70;;
42260;SDS011;27926;48.062;7.474;2022-08-19T06:40:03;14.13;;;7.75;;
42260;SDS011;27926;48.062;7.474;2022-08-19T06:42:32;14.75;;;6.85;;
42260;SDS011;27926;48.062;7.474;2022-08-19T06:44:56;24.50;;;7.90;;
42260;SDS011;27926;48.062;7.474;2022-08-19T06:47:21;9.13;;;6.90;;
42260;SDS011;27926;48.062;7.474;2022-08-19T06:49:46;13.07;;;8.13;;
42260;SDS011;27926;48.062;7.474;2022-08-19T06:52:11;15.48;;;7.88;;
42260;SDS011;27926;48.062;7.474;2022-08-19T06:54:39;19.83;;;7.63;;
42260;SDS011;27926;48.062;7.474;2022-08-19T06:57:05;11.10;;;7.55;;
42260;SDS011;27926;48.062;7.474;2022-08-19T06:59:31;11.32;;;7.28;;
42260;SDS011;27926;48.062;7.474;2022-08-19T07:01:57;10.55;;;7.50;;
42260;SDS011;27926;48.062;7.474;2022-08-19T07:04:27;10.65;;;7.28;;
42260;SDS011;27926;48.062;7.474;2022-08-19T07:07:07;20.73;;;7.15;;
42260;SDS011;27926;48.062;7.474;2022-08-19T07:12:12;11.35;;;6.65;;
42260;SDS011;27926;48.062;7.474;2022-08-19T07:22:40;16.25;;;7.70;;
42260;SDS011;27926;48.062;7.474;2022-08-19T07:25:05;10.05;;;7.00;;
42260;SDS011;27926;48.062;7.474;2022-08-19T07:27:31;24.30;;;9.13;;
42260;SDS011;27926;48.062;7.474;2022-08-19T07:32:22;18.23;;;8.80;;
42260;SDS011;27926;48.062;7.474;2022-08-19T07:34:50;14.07;;;8.32;;
42260;SDS011;27926;48.062;7.474;2022-08-19T07:37:14;11.60;;;8.23;;
42260;SDS011;27926;48.062;7.474;2022-08-19T07:39:39;17.37;;;8.70;;
42260;SDS011;27926;48.062;7.474;2022-08-19T07:42:06;15.57;;;9.33;;
42260;SDS011;27926;48.062;7.474;2022-08-19T07:44:32;14.07;;;9.05;;
42260;SDS011;27926;48.062;7.474;2022-08-19T07:46:57;16.35;;;10.43;;
42260;SDS011;27926;48.062;7.474;2022-08-19T07:49:24;16.20;;;8.65;;
42260;SDS011;27926;48.062;7.474;2022-08-19T07:52:10;16.70;;;8.20;;
42260;SDS011;27926;48.062;7.474;2022-08-19T07:54:34;13.90;;;9.32;;
42260;SDS011;27926;48.062;7.474;2022-08-19T07:57:00;11.82;;;8.32;;
42260;SDS011;27926;48.062;7.474;2022-08-19T07:59:25;14.97;;;9.33;;
42260;SDS011;27926;48.062;7.474;2022-08-19T08:01:50;15.87;;;9.93;;
42260;SDS011;27926;48.062;7.474;2022-08-19T08:04:15;12.47;;;8.90;;
42260;SDS011;27926;48.062;7.474;2022-08-19T08:06:59;11.82;;;9.68;;
42260;SDS011;27926;48.062;7.474;2022-08-19T08:09:43;17.38;;;10.30;;
42260;SDS011;27926;48.062;7.474;2022-08-19T08:12:10;14.65;;;8.32;;
42260;SDS011;27926;48.062;7.474;2022-08-19T08:14:43;17.73;;;9.75;;
42260;SDS011;27926;48.062;7.474;2022-08-19T08:17:17;13.10;;;9.20;;
42260;SDS011;27926;48.062;7.474;2022-08-19T08:19:44;16.33;;;9.18;;
42260;SDS011;27926;48.062;7.474;2022-08-19T08:22:09;13.15;;;8.30;;
42260;SDS011;27926;48.062;7.474;2022-08-19T08:25:00;22.33;;;10.00;;
42260;SDS011;27926;48.062;7.474;2022-08-19T08:27:30;11.93;;;9.82;;
42260;SDS011;27926;48.062;7.474;2022-08-19T08:29:55;14.83;;;9.50;;
42260;SDS011;27926;48.062;7.474;2022-08-19T08:32:19;13.10;;;9.53;;
42260;SDS011;27926;48.062;7.474;2022-08-19T08:34:44;17.07;;;11.50;;
42260;SDS011;27926;48.062;7.474;2022-08-19T08:37:09;15.93;;;10.77;;
42260;SDS011;27926;48.062;7.474;2022-08-19T08:39:33;13.63;;;9.87;;
42260;SDS011;27926;48.062;7.474;2022-08-19T08:42:07;12.88;;;9.63;;
42260;SDS011;27926;48.062;7.474;2022-08-19T08:44:53;14.52;;;10.77;;
42260;SDS011;27926;48.062;7.474;2022-08-19T08:47:32;19.35;;;12.38;;
42260;SDS011;27926;48.062;7.474;2022-08-19T08:52:32;26.73;;;11.68;;
42260;SDS011;27926;48.062;7.474;2022-08-19T08:55:00;19.23;;;12.85;;
42260;SDS011;27926;48.062;7.474;2022-08-19T08:57:32;19.30;;;10.82;;
42260;SDS011;27926;48.062;7.474;2022-08-19T09:00:09;15.23;;;12.20;;
42260;SDS011;27926;48.062;7.474;2022-08-19T09:02:38;20.05;;;12.48;;
42260;SDS011;27926;48.062;7.474;2022-08-19T09:05:03;18.50;;;12.20;;
42260;SDS011;27926;48.062;7.474;2022-08-19T09:10:21;17.85;;;11.48;;
42260;SDS011;27926;48.062;7.474;2022-08-19T09:15:40;14.77;;;10.50;;
42260;SDS011;27926;48.062;7.474;2022-08-19T09:18:09;17.02;;;10.85;;
42260;SDS011;27926;48.062;7.474;2022-08-19T09:20:34;16.65;;;10.88;;
42260;SDS011;27926;48.062;7.474;2022-08-19T09:22:59;23.00;;;10.17;;
42260;SDS011;27926;48.062;7.474;2022-08-19T09:25:24;21.50;;;9.67;;
42260;SDS011;27926;48.062;7.474;2022-08-19T09:27:49;18.65;;;11.23;;
42260;SDS011;27926;48.062;7.474;2022-08-19T09:30:22;19.38;;;11.00;;
42260;SDS011;27926;48.062;7.474;2022-08-19T09:32:48;17.02;;;11.45;;
42260;SDS011;27926;48.062;7.474;2022-08-19T09:35:13;17.30;;;13.10;;
42260;SDS011;27926;48.062;7.474;2022-08-19T09:40:04;19.50;;;11.50;;
42260;SDS011;27926;48.062;7.474;2022-08-19T09:42:30;16.55;;;11.20;;
42260;SDS011;27926;48.062;7.474;2022-08-19T09:44:55;21.97;;;12.07;;
42260;SDS011;27926;48.062;7.474;2022-08-19T09:47:20;16.97;;;11.30;;
42260;SDS011;27926;48.062;7.474;2022-08-19T09:49:44;22.17;;;11.50;;
42260;SDS011;27926;48.062;7.474;2022-08-19T09:52:09;20.37;;;11.50;;
42260;SDS011;27926;48.062;7.474;2022-08-19T09:54:35;15.23;;;11.32;;
42260;SDS011;27926;48.062;7.474;2022-08-19T09:57:00;19.30;;;13.20;;
42260;SDS011;27926;48.062;7.474;2022-08-19T09:59:25;18.85;;;11.85;;
42260;SDS011;27926;48.062;7.474;2022-08-19T10:01:50;18.55;;;11.07;;
42260;SDS011;27926;48.062;7.474;2022-08-19T10:04:16;17.33;;;12.18;;
42260;SDS011;27926;48.062;7.474;2022-08-19T10:06:41;14.27;;;10.45;;
42260;SDS011;27926;48.062;7.474;2022-08-19T10:09:06;18.50;;;11.38;;
42260;SDS011;27926;48.062;7.474;2022-08-19T10:11:34;14.45;;;10.25;;
42260;SDS011;27926;48.062;7.474;2022-08-19T10:14:01;21.25;;;13.00;;
42260;SDS011;27926;48.062;7.474;2022-08-19T10:16:29;22.13;;;12.20;;
42260;SDS011;27926;48.062;7.474;2022-08-19T10:18:54;16.00;;;10.13;;
42260;SDS011;27926;48.062;7.474;2022-08-19T10:21:23;21.57;;;12.33;;
42260;SDS011;27926;48.062;7.474;2022-08-19T10:23:50;17.20;;;12.00;;
42260;SDS011;27926;48.062;7.474;2022-08-19T10:26:19;16.25;;;11.57;;
42260;SDS011;27926;48.062;7.474;2022-08-19T10:28:46;20.17;;;12.63;;
42260;SDS011;27926;48.062;7.474;2022-08-19T10:31:12;22.15;;;12.65;;
42260;SDS011;27926;48.062;7.474;2022-08-19T10:33:43;23.20;;;11.25;;
42260;SDS011;27926;48.062;7.474;2022-08-19T10:36:10;19.07;;;12.10;;
42260;SDS011;27926;48.062;7.474;2022-08-19T10:38:38;24.35;;;13.40;;
42260;SDS011;27926;48.062;7.474;2022-08-19T10:41:23;17.60;;;11.47;;
42260;SDS011;27926;48.062;7.474;2022-08-19T10:43:53;16.05;;;11.63;;
42260;SDS011;27926;48.062;7.474;2022-08-19T10:46:20;14.60;;;11.15;;
42260;SDS011;27926;48.062;7.474;2022-08-19T10:48:46;15.90;;;12.07;;
42260;SDS011;27926;48.062;7.474;2022-08-19T10:51:10;15.83;;;12.00;;
42260;SDS011;27926;48.062;7.474;2022-08-19T10:53:54;13.20;;;10.18;;
42260;SDS011;27926;48.062;7.474;2022-08-19T10:56:19;15.68;;;11.18;;
42260;SDS011;27926;48.062;7.474;2022-08-19T10:59:03;16.60;;;11.15;;
42260;SDS011;27926;48.062;7.474;2022-08-19T11:01:28;15.05;;;10.50;;
42260;SDS011;27926;48.062;7.474;2022-08-19T11:03:54;14.43;;;9.80;;
42260;SDS011;27926;48.062;7.474;2022-08-19T11:06:21;21.08;;;11.23;;
42260;SDS011;27926;48.062;7.474;2022-08-19T11:08:45;20.10;;;11.17;;
42260;SDS011;27926;48.062;7.474;2022-08-19T11:11:10;13.47;;;10.57;;
42260;SDS011;27926;48.062;7.474;2022-08-19T11:13:36;14.65;;;9.60;;
42260;SDS011;27926;48.062;7.474;2022-08-19T11:16:05;20.40;;;9.98;;
42260;SDS011;27926;48.062;7.474;2022-08-19T11:18:36;13.77;;;9.57;;
42260;SDS011;27926;48.062;7.474;2022-08-19T11:21:13;21.10;;;11.70;;
42260;SDS011;27926;48.062;7.474;2022-08-19T11:23:44;16.63;;;11.93;;
42260;SDS011;27926;48.062;7.474;2022-08-19T11:26:11;14.90;;;10.52;;
42260;SDS011;27926;48.062;7.474;2022-08-19T11:28:36;17.15;;;10.85;;
42260;SDS011;27926;48.062;7.474;2022-08-19T11:31:01;15.27;;;10.97;;
42260;SDS011;27926;48.062;7.474;2022-08-19T11:33:27;24.73;;;10.65;;
42260;SDS011;27926;48.062;7.474;2022-08-19T11:35:52;14.57;;;10.47;;
42260;SDS011;27926;48.062;7.474;2022-08-19T11:38:18;14.25;;;10.73;;
42260;SDS011;27926;48.062;7.474;2022-08-19T11:40:42;15.20;;;11.50;;
42260;SDS011;27926;48.062;7.474;2022-08-19T11:43:07;17.73;;;11.23;;
42260;SDS011;27926;48.062;7.474;2022-08-19T11:45:33;21.48;;;10.93;;
42260;SDS011;27926;48.062;7.474;2022-08-19T11:47:59;15.48;;;11.35;;
42260;SDS011;27926;48.062;7.474;2022-08-19T11:50:24;21.42;;;11.10;;
42260;SDS011;27926;48.062;7.474;2022-08-19T11:52:49;15.47;;;11.83;;
42260;SDS011;27926;48.062;7.474;2022-08-19T11:55:15;14.10;;;10.55;;
42260;SDS011;27926;48.062;7.474;2022-08-19T11:57:39;15.50;;;11.53;;
42260;SDS011;27926;48.062;7.474;2022-08-19T12:00:07;14.82;;;10.82;;
42260;SDS011;27926;48.062;7.474;2022-08-19T12:02:37;18.05;;;10.65;;
42260;SDS011;27926;48.062;7.474;2022-08-19T12:05:01;14.80;;;9.83;;
42260;SDS011;27926;48.062;7.474;2022-08-19T12:07:27;15.70;;;10.60;;
42260;SDS011;27926;48.062;7.474;2022-08-19T12:09:51;26.20;;;11.93;;
42260;SDS011;27926;48.062;7.474;2022-08-19T12:12:16;18.20;;;10.27;;
42260;SDS011;27926;48.062;7.474;2022-08-19T12:14:40;15.33;;;10.00;;
42260;SDS011;27926;48.062;7.474;2022-08-19T12:17:05;13.37;;;10.57;;
42260;SDS011;27926;48.062;7.474;2022-08-19T12:19:33;13.90;;;9.82;;
42260;SDS011;27926;48.062;7.474;2022-08-19T12:21:58;18.05;;;10.60;;
42260;SDS011;27926;48.062;7.474;2022-08-19T12:24:28;16.38;;;10.20;;
42260;SDS011;27926;48.062;7.474;2022-08-19T12:26:55;25.65;;;12.68;;
42260;SDS011;27926;48.062;7.474;2022-08-19T12:29:21;16.20;;;12.15;;
42260;SDS011;27926;48.062;7.474;2022-08-19T12:31:45;21.87;;;12.87;;
42260;SDS011;27926;48.062;7.474;2022-08-19T12:34:10;17.93;;;13.17;;
42260;SDS011;27926;48.062;7.474;2022-08-19T12:36:35;19.00;;;12.27;;
42260;SDS011;27926;48.062;7.474;2022-08-19T12:39:01;16.95;;;11.88;;
42260;SDS011;27926;48.062;7.474;2022-08-19T12:41:27;17.80;;;11.23;;
42260;SDS011;27926;48.062;7.474;2022-08-19T12:43:52;14.77;;;11.27;;
42260;SDS011;27926;48.062;7.474;2022-08-19T12:46:17;15.40;;;9.70;;
42260;SDS011;27926;48.062;7.474;2022-08-19T12:48:43;14.27;;;10.27;;
42260;SDS011;27926;48.062;7.474;2022-08-19T12:51:09;18.13;;;9.98;;
42260;SDS011;27926;48.062;7.474;2022-08-19T12:53:40;15.93;;;9.70;;
42260;SDS011;27926;48.062;7.474;2022-08-19T12:56:05;16.60;;;11.07;;
42260;SDS011;27926;48.062;7.474;2022-08-19T12:58:31;14.55;;;9.63;;
42260;SDS011;27926;48.062;7.474;2022-08-19T13:00:58;17.98;;;12.15;;
42260;SDS011;27926;48.062;7.474;2022-08-19T13:03:23;20.50;;;12.07;;
42260;SDS011;27926;48.062;7.474;2022-08-19T13:05:52;17.38;;;11.88;;
42260;SDS011;27926;48.062;7.474;2022-08-19T13:08:17;17.97;;;11.90;;
42260;SDS011;27926;48.062;7.474;2022-08-19T13:10:42;17.20;;;12.07;;
42260;SDS011;27926;48.062;7.474;2022-08-19T13:13:07;16.37;;;12.30;;
42260;SDS011;27926;48.062;7.474;2022-08-19T13:15:34;18.83;;;11.57;;
42260;SDS011;27926;48.062;7.474;2022-08-19T13:18:01;11.60;;;8.88;;
42260;SDS011;27926;48.062;7.474;2022-08-19T13:20:26;13.80;;;10.07;;
42260;SDS011;27926;48.062;7.474;2022-08-19T13:22:50;14.83;;;10.17;;
42260;SDS011;27926;48.062;7.474;2022-08-19T13:25:15;16.93;;;9.20;;
42260;SDS011;27926;48.062;7.474;2022-08-19T13:27:43;13.93;;;9.30;;
42260;SDS011;27926;48.062;7.474;2022-08-19T13:30:09;11.85;;;8.30;;
42260;SDS011;27926;48.062;7.474;2022-08-19T13:32:53;12.02;;;8.85;;
42260;SDS011;27926;48.062;7.474;2022-08-19T13:35:48;16.50;;;9.02;;
42260;SDS011;27926;48.062;7.474;2022-08-19T13:38:21;18.42;;;9.15;;
42260;SDS011;27926;48.062;7.474;2022-08-19T13:40:46;12.15;;;9.00;;
42260;SDS011;27926;48.062;7.474;2022-08-19T13:43:14;11.65;;;8.82;;
42260;SDS011;27926;48.062;7.474;2022-08-19T13:45:39;11.70;;;8.27;;
42260;SDS011;27926;48.062;7.474;2022-08-19T13:48:05;10.25;;;7.40;;
42260;SDS011;27926;48.062;7.474;2022-08-19T13:50:32;14.25;;;9.07;;
42260;SDS011;27926;48.062;7.474;2022-08-19T13:52:58;16.38;;;8.38;;
42260;SDS011;27926;48.062;7.474;2022-08-19T13:55:24;12.65;;;7.35;;
42260;SDS011;27926;48.062;7.474;2022-08-19T13:57:54;10.20;;;7.00;;
42260;SDS011;27926;48.062;7.474;2022-08-19T14:00:21;12.27;;;8.25;;
42260;SDS011;27926;48.062;7.474;2022-08-19T14:02:50;9.52;;;8.07;;
42260;SDS011;27926;48.062;7.474;2022-08-19T14:05:18;9.30;;;7.45;;
42260;SDS011;27926;48.062;7.474;2022-08-19T14:07:43;7.55;;;6.68;;
42260;SDS011;27926;48.062;7.474;2022-08-19T14:10:08;10.40;;;8.10;;
42260;SDS011;27926;48.062;7.474;2022-08-19T14:12:34;13.20;;;7.75;;
42260;SDS011;27926;48.062;7.474;2022-08-19T14:15:00;14.20;;;7.35;;
42260;SDS011;27926;48.062;7.474;2022-08-19T14:17:26;9.68;;;7.03;;
42260;SDS011;27926;48.062;7.474;2022-08-19T14:19:56;8.73;;;7.28;;
42260;SDS011;27926;48.062;7.474;2022-08-19T14:22:22;9.98;;;7.00;;
42260;SDS011;27926;48.062;7.474;2022-08-19T14:24:46;24.00;;;8.10;;
42260;SDS011;27926;48.062;7.474;2022-08-19T14:27:11;12.75;;;8.20;;
42260;SDS011;27926;48.062;7.474;2022-08-19T14:29:36;15.17;;;7.30;;
42260;SDS011;27926;48.062;7.474;2022-08-19T14:32:01;10.43;;;7.75;;
42260;SDS011;27926;48.062;7.474;2022-08-19T14:34:26;9.00;;;7.47;;
42260;SDS011;27926;48.062;7.474;2022-08-19T14:36:51;12.80;;;7.33;;
42260;SDS011;27926;48.062;7.474;2022-08-19T14:39:16;11.13;;;7.05;;
42260;SDS011;27926;48.062;7.474;2022-08-19T14:41:41;14.20;;;8.17;;
42260;SDS011;27926;48.062;7.474;2022-08-19T14:44:06;10.13;;;7.57;;
42260;SDS011;27926;48.062;7.474;2022-08-19T14:46:30;10.13;;;7.73;;
42260;SDS011;27926;48.062;7.474;2022-08-19T14:48:55;10.17;;;7.07;;
42260;SDS011;27926;48.062;7.474;2022-08-19T14:51:21;12.02;;;7.50;;
42260;SDS011;27926;48.062;7.474;2022-08-19T14:53:47;9.13;;;6.70;;
42260;SDS011;27926;48.062;7.474;2022-08-19T14:56:14;13.90;;;6.78;;
42260;SDS011;27926;48.062;7.474;2022-08-19T14:58:40;9.45;;;7.18;;
42260;SDS011;27926;48.062;7.474;2022-08-19T15:01:06;9.07;;;7.32;;
42260;SDS011;27926;48.062;7.474;2022-08-19T15:03:32;9.20;;;6.93;;
42260;SDS011;27926;48.062;7.474;2022-08-19T15:05:57;9.07;;;7.17;;
42260;SDS011;27926;48.062;7.474;2022-08-19T15:08:24;9.98;;;7.32;;
42260;SDS011;27926;48.062;7.474;2022-08-19T15:10:51;12.68;;;8.05;;
42260;SDS011;27926;48.062;7.474;2022-08-19T15:13:16;17.17;;;8.75;;
42260;SDS011;27926;48.062;7.474;2022-08-19T15:15:41;12.15;;;8.95;;
42260;SDS011;27926;48.062;7.474;2022-08-19T15:18:06;12.50;;;8.80;;
42260;SDS011;27926;48.062;7.474;2022-08-19T15:20:30;11.50;;;9.13;;
42260;SDS011;27926;48.062;7.474;2022-08-19T15:22:56;20.27;;;7.93;;
42260;SDS011;27926;48.062;7.474;2022-08-19T15:25:22;12.52;;;7.90;;
42260;SDS011;27926;48.062;7.474;2022-08-19T15:27:47;11.03;;;8.67;;
42260;SDS011;27926;48.062;7.474;2022-08-19T15:30:12;10.43;;;8.47;;
42260;SDS011;27926;48.062;7.474;2022-08-19T15:32:42;10.20;;;7.65;;
42260;SDS011;27926;48.062;7.474;2022-08-19T15:35:07;12.27;;;8.17;;
42260;SDS011;27926;48.062;7.474;2022-08-19T15:37:32;15.93;;;8.70;;
42260;SDS011;27926;48.062;7.474;2022-08-19T15:39:56;15.97;;;8.77;;
42260;SDS011;27926;48.062;7.474;2022-08-19T15:42:27;11.32;;;8.50;;
42260;SDS011;27926;48.062;7.474;2022-08-19T15:44:52;14.48;;;8.77;;
42260;SDS011;27926;48.062;7.474;2022-08-19T15:47:17;12.77;;;9.80;;
42260;SDS011;27926;48.062;7.474;2022-08-19T15:49:43;15.38;;;8.52;;
42260;SDS011;27926;48.062;7.474;2022-08-19T15:52:08;17.57;;;8.50;;
42260;SDS011;27926;48.062;7.474;2022-08-19T15:54:32;12.50;;;9.17;;
42260;SDS011;27926;48.062;7.474;2022-08-19T15:56:57;13.17;;;8.17;;
42260;SDS011;27926;48.062;7.474;2022-08-19T15:59:41;13.82;;;9.13;;
42260;SDS011;27926;48.062;7.474;2022-08-19T16:02:28;13.05;;;8.75;;
42260;SDS011;27926;48.062;7.474;2022-08-19T16:05:14;12.52;;;8.77;;
42260;SDS011;27926;48.062;7.474;2022-08-19T16:07:59;12.20;;;8.63;;
42260;SDS011;27926;48.062;7.474;2022-08-19T16:10:27;12.35;;;8.88;;
42260;SDS011;27926;48.062;7.474;2022-08-19T16:12:52;12.90;;;8.80;;
42260;SDS011;27926;48.062;7.474;2022-08-19T16:15:19;9.67;;;8.67;;
42260;SDS011;27926;48.062;7.474;2022-08-19T16:17:44;10.45;;;8.13;;
42260;SDS011;27926;48.062;7.474;2022-08-19T16:20:08;15.80;;;7.83;;
42260;SDS011;27926;48.062;7.474;2022-08-19T16:22:34;10.20;;;7.93;;
42260;SDS011;27926;48.062;7.474;2022-08-19T16:24:59;12.55;;;8.23;;
42260;SDS011;27926;48.062;7.474;2022-08-19T16:27:24;12.73;;;9.50;;
42260;SDS011;27926;48.062;7.474;2022-08-19T16:29:49;11.70;;;8.10;;
42260;SDS011;27926;48.062;7.474;2022-08-19T16:32:14;12.63;;;9.03;;
42260;SDS011;27926;48.062;7.474;2022-08-19T16:34:39;19.30;;;9.73;;
42260;SDS011;27926;48.062;7.474;2022-08-19T16:37:04;10.68;;;8.65;;
42260;SDS011;27926;48.062;7.474;2022-08-19T16:39:29;11.80;;;8.33;;
42260;SDS011;27926;48.062;7.474;2022-08-19T16:41:53;16.80;;;8.17;;
42260;SDS011;27926;48.062;7.474;2022-08-19T16:44:18;12.33;;;7.83;;
42260;SDS011;27926;48.062;7.474;2022-08-19T16:46:43;17.92;;;7.95;;
42260;SDS011;27926;48.062;7.474;2022-08-19T16:49:10;9.80;;;7.40;;
42260;SDS011;27926;48.062;7.474;2022-08-19T16:51:34;9.90;;;7.17;;
42260;SDS011;27926;48.062;7.474;2022-08-19T16:54:00;10.77;;;7.43;;
42260;SDS011;27926;48.062;7.474;2022-08-19T16:56:26;10.65;;;8.05;;
42260;SDS011;27926;48.062;7.474;2022-08-19T16:58:51;11.10;;;7.65;;
42260;SDS011;27926;48.062;7.474;2022-08-19T17:01:17;10.73;;;8.13;;
42260;SDS011;27926;48.062;7.474;2022-08-19T17:03:41;11.70;;;7.93;;
42260;SDS011;27926;48.062;7.474;2022-08-19T17:06:26;13.47;;;8.80;;
42260;SDS011;27926;48.062;7.474;2022-08-19T17:08:54;12.07;;;8.38;;
42260;SDS011;27926;48.062;7.474;2022-08-19T17:11:22;10.35;;;8.38;;
42260;SDS011;27926;48.062;7.474;2022-08-19T17:13:49;12.32;;;8.65;;
42260;SDS011;27926;48.062;7.474;2022-08-19T17:18:40;11.32;;;8.73;;
42260;SDS011;27926;48.062;7.474;2022-08-19T17:21:05;11.67;;;8.43;;
42260;SDS011;27926;48.062;7.474;2022-08-19T17:23:29;12.30;;;9.33;;
42260;SDS011;27926;48.062;7.474;2022-08-19T17:25:54;13.63;;;8.67;;
42260;SDS011;27926;48.062;7.474;2022-08-19T17:28:20;9.90;;;8.60;;
42260;SDS011;27926;48.062;7.474;2022-08-19T17:30:49;10.75;;;8.48;;
42260;SDS011;27926;48.062;7.474;2022-08-19T17:33:13;13.03;;;8.60;;
42260;SDS011;27926;48.062;7.474;2022-08-19T17:35:38;13.53;;;8.63;;
42260;SDS011;27926;48.062;7.474;2022-08-19T17:38:06;14.50;;;8.57;;
42260;SDS011;27926;48.062;7.474;2022-08-19T17:40:32;13.00;;;8.77;;
42260;SDS011;27926;48.062;7.474;2022-08-19T17:45:22;13.40;;;8.85;;
42260;SDS011;27926;48.062;7.474;2022-08-19T17:47:47;18.90;;;9.07;;
42260;SDS011;27926;48.062;7.474;2022-08-19T17:50:12;19.03;;;8.43;;
42260;SDS011;27926;48.062;7.474;2022-08-19T17:52:36;17.13;;;9.43;;
42260;SDS011;27926;48.062;7.474;2022-08-19T17:55:01;12.10;;;8.20;;
42260;SDS011;27926;48.062;7.474;2022-08-19T17:57:26;12.23;;;9.40;;
42260;SDS011;27926;48.062;7.474;2022-08-19T17:59:51;10.93;;;8.27;;
42260;SDS011;27926;48.062;7.474;2022-08-19T18:02:16;19.13;;;8.73;;
42260;SDS011;27926;48.062;7.474;2022-08-19T18:04:41;14.00;;;8.57;;
42260;SDS011;27926;48.062;7.474;2022-08-19T18:07:06;10.70;;;7.97;;
42260;SDS011;27926;48.062;7.474;2022-08-19T18:09:35;11.25;;;7.97;;
42260;SDS011;27926;48.062;7.474;2022-08-19T18:12:02;11.38;;;8.90;;
42260;SDS011;27926;48.062;7.474;2022-08-19T18:14:30;13.25;;;7.90;;
42260;SDS011;27926;48.062;7.474;2022-08-19T18:16:57;10.80;;;8.40;;
42260;SDS011;27926;48.062;7.474;2022-08-19T18:19:23;20.70;;;8.57;;
42260;SDS011;27926;48.062;7.474;2022-08-19T18:21:48;14.45;;;8.57;;
42260;SDS011;27926;48.062;7.474;2022-08-19T18:24:13;14.07;;;8.40;;
42260;SDS011;27926;48.062;7.474;2022-08-19T18:26:37;13.70;;;9.27;;
42260;SDS011;27926;48.062;7.474;2022-08-19T18:29:02;14.65;;;8.50;;
42260;SDS011;27926;48.062;7.474;2022-08-19T18:31:27;13.50;;;9.03;;
42260;SDS011;27926;48.062;7.474;2022-08-19T18:33:52;17.10;;;10.23;;
42260;SDS011;27926;48.062;7.474;2022-08-19T18:36:17;15.63;;;10.30;;
42260;SDS011;27926;48.062;7.474;2022-08-19T18:38:42;14.00;;;9.43;;
42260;SDS011;27926;48.062;7.474;2022-08-19T18:41:25;15.38;;;9.63;;
42260;SDS011;27926;48.062;7.474;2022-08-19T18:44:08;12.75;;;9.43;;
42260;SDS011;27926;48.062;7.474;2022-08-19T18:46:55;16.98;;;10.52;;
42260;SDS011;27926;48.062;7.474;2022-08-19T18:49:38;14.82;;;9.65;;
42260;SDS011;27926;48.062;7.474;2022-08-19T18:52:03;15.80;;;9.35;;
42260;SDS011;27926;48.062;7.474;2022-08-19T18:54:29;13.77;;;9.32;;
42260;SDS011;27926;48.062;7.474;2022-08-19T18:56:53;13.40;;;9.70;;